Time,TemperatureF,DewpointF,PressureIn,WindDirection,WindDirectionDegrees,WindSpeedMPH,WindSpeedGustMPH,Humidity,HourlyPrecipIn,Conditions,Clouds,dailyrainin,SoftwareType,DateUTC
2013-02-11 00:02:00,20.6,19.0,30.38,North,6,0.0,0.0,95,0.00,,,0.00,weatherlink.com 1.10,2013-02-11 05:02:00,
2013-02-11 00:17:00,20.2,19.0,30.38,North,6,0.0,0.0,94,0.00,,,0.00,weatherlink.com 1.10,2013-02-11 05:17:00,
2013-02-11 00:32:00,20.8,20.0,30.39,North,6,0.0,0.0,96,0.00,,,0.00,weatherlink.com 1.10,2013-02-11 05:32:00,
2013-02-11 00:47:00,21.6,21.0,30.38,North,6,0.0,0.0,96,0.00,,,0.00,weatherlink.com 1.10,2013-02-11 05:47:00,
2013-02-11 01:02:00,22.8,22.0,30.38,WSW,243,0.0,1.0,97,0.00,,,0.00,weatherlink.com 1.10,2013-02-11 06:02:00,
2013-02-11 01:17:00,23.4,23.0,30.38,WSW,243,0.0,0.0,97,0.00,,,0.00,weatherlink.com 1.10,2013-02-11 06:17:00,
2013-02-11 01:32:00,24.4,24.0,30.37,WSW,243,0.0,0.0,97,0.00,,,0.00,weatherlink.com 1.10,2013-02-11 06:32:00,
2013-02-11 01:47:00,23.9,23.0,30.37,WSW,243,0.0,0.0,96,0.00,,,0.00,weatherlink.com 1.10,2013-02-11 06:47:00,
2013-02-11 02:02:00,24.1,23.0,30.36,WSW,243,0.0,0.0,97,0.00,,,0.00,weatherlink.com 1.10,2013-02-11 07:02:00,
2013-02-11 02:17:00,23.4,23.0,30.35,WSW,243,0.0,0.0,96,0.00,,,0.00,weatherlink.com 1.10,2013-02-11 07:17:00,
2013-02-11 02:32:00,22.9,22.0,30.34,WSW,243,0.0,0.0,96,0.00,,,0.00,weatherlink.com 1.10,2013-02-11 07:32:00,
2013-02-11 02:47:00,22.7,22.0,30.33,WSW,243,0.0,0.0,96,0.00,,,0.00,weatherlink.com 1.10,2013-02-11 07:47:00,
2013-02-11 03:02:00,23.4,23.0,30.32,ESE,115,0.0,0.0,96,0.00,,,0.00,weatherlink.com 1.10,2013-02-11 08:02:00,
2013-02-11 03:17:00,25.4,25.0,30.32,SW,222,0.0,3.0,97,0.00,,,0.00,weatherlink.com 1.10,2013-02-11 08:17:00,
2013-02-11 03:32:00,26.6,26.0,30.32,West,264,0.0,2.0,97,0.00,,,0.00,weatherlink.com 1.10,2013-02-11 08:32:00,
2013-02-11 03:47:00,27.6,27.0,30.33,WSW,240,2.0,5.0,96,0.00,,,0.00,weatherlink.com 1.10,2013-02-11 08:47:00,
2013-02-11 04:02:00,30.3,28.0,30.32,WSW,245,1.0,5.0,92,0.00,,,0.00,weatherlink.com 1.10,2013-02-11 09:02:00,
2013-02-11 04:18:00,30.6,28.0,30.32,SSW,207,3.0,4.0,91,0.00,,,0.00,weatherlink.com 1.10,2013-02-11 09:18:00,
2013-02-11 04:32:00,30.8,28.0,30.31,SE,139,1.0,3.0,90,0.00,,,0.00,weatherlink.com 1.10,2013-02-11 09:32:00,
2013-02-11 04:47:00,30.8,28.0,30.30,South,180,0.0,4.0,90,0.00,,,0.00,weatherlink.com 1.10,2013-02-11 09:47:00,
2013-02-11 05:02:00,30.8,29.0,30.30,SW,225,1.0,5.0,91,0.00,,,0.00,weatherlink.com 1.10,2013-02-11 10:02:00,
2013-02-11 05:17:00,31.1,29.0,30.29,SSW,197,1.0,5.0,92,0.00,,,0.00,weatherlink.com 1.10,2013-02-11 10:17:00,
2013-02-11 05:32:00,31.4,29.0,30.29,WSW,237,0.0,3.0,91,0.00,,,0.00,weatherlink.com 1.10,2013-02-11 10:32:00,
2013-02-11 05:47:00,31.4,29.0,30.29,SE,142,0.0,3.0,90,0.00,,,0.00,weatherlink.com 1.10,2013-02-11 10:47:00,
2013-02-11 06:03:00,31.7,29.0,30.30,South,191,2.0,4.0,90,0.00,,,0.00,weatherlink.com 1.10,2013-02-11 11:03:00,
2013-02-11 06:18:00,31.9,29.0,30.30,South,172,1.0,5.0,90,0.00,,,0.00,weatherlink.com 1.10,2013-02-11 11:18:00,
2013-02-11 06:33:00,32.1,29.0,30.29,ESE,111,1.0,4.0,89,0.00,,,0.00,weatherlink.com 1.10,2013-02-11 11:33:00,
2013-02-11 06:48:00,32.2,29.0,30.29,WSW,239,0.0,4.0,89,0.00,,,0.00,weatherlink.com 1.10,2013-02-11 11:48:00,
2013-02-11 07:03:00,32.3,30.0,30.27,SE,146,2.0,4.0,90,0.00,,,0.00,weatherlink.com 1.10,2013-02-11 12:03:00,
2013-02-11 07:18:00,32.8,30.0,30.27,WSW,250,1.0,5.0,90,0.00,,,0.00,weatherlink.com 1.10,2013-02-11 12:18:00,
2013-02-11 07:33:00,33.4,31.0,30.27,SE,130,1.0,6.0,89,0.00,,,0.00,weatherlink.com 1.10,2013-02-11 12:33:00,
2013-02-11 07:48:00,33.9,31.0,30.25,SE,131,1.0,8.0,88,0.00,,,0.00,weatherlink.com 1.10,2013-02-11 12:48:00,
2013-02-11 08:03:00,34.6,31.0,30.25,WNW,300,1.0,9.0,87,0.00,,,0.00,weatherlink.com 1.10,2013-02-11 13:03:00,
2013-02-11 08:18:00,35.0,32.0,30.25,SW,228,1.0,7.0,87,0.00,,,0.00,weatherlink.com 1.10,2013-02-11 13:18:00,
2013-02-11 08:33:00,35.9,33.0,30.24,SSE,160,6.0,8.0,88,0.00,,,0.00,weatherlink.com 1.10,2013-02-11 13:33:00,
2013-02-11 08:48:00,36.4,33.0,30.23,SSW,198,6.0,9.0,88,0.00,,,0.00,weatherlink.com 1.10,2013-02-11 13:48:00,
2013-02-11 09:03:00,36.9,34.0,30.21,SSE,149,4.0,8.0,89,0.00,,,0.00,weatherlink.com 1.10,2013-02-11 14:03:00,
2013-02-11 09:18:00,37.2,34.0,30.21,SSW,194,8.0,10.0,89,0.01,,,0.01,weatherlink.com 1.10,2013-02-11 14:18:00,
2013-02-11 09:33:00,37.3,34.0,30.21,South,177,3.0,11.0,89,0.02,,,0.02,weatherlink.com 1.10,2013-02-11 14:33:00,
2013-02-11 09:48:00,37.6,35.0,30.20,SW,232,5.0,9.0,89,0.03,,,0.03,weatherlink.com 1.10,2013-02-11 14:48:00,
2013-02-11 10:03:00,37.6,35.0,30.18,South,184,6.0,12.0,89,0.04,,,0.04,weatherlink.com 1.10,2013-02-11 15:03:00,
2013-02-11 10:19:00,37.9,35.0,30.16,SE,143,3.0,10.0,89,0.04,,,0.05,weatherlink.com 1.10,2013-02-11 15:19:00,
2013-02-11 10:34:00,38.2,36.0,30.15,SSE,149,6.0,16.0,90,0.05,,,0.07,weatherlink.com 1.10,2013-02-11 15:34:00,
2013-02-11 10:48:00,38.3,36.0,30.14,SSE,167,2.0,12.0,91,0.05,,,0.08,weatherlink.com 1.10,2013-02-11 15:48:00,
2013-02-11 11:04:00,38.5,36.0,30.11,SSE,156,5.0,16.0,92,0.07,,,0.11,weatherlink.com 1.10,2013-02-11 16:04:00,
2013-02-11 11:18:00,38.7,37.0,30.09,SE,129,10.0,14.0,93,0.08,,,0.13,weatherlink.com 1.10,2013-02-11 16:18:00,
2013-02-11 11:34:00,39.1,38.0,30.07,East,97,6.0,18.0,94,0.09,,,0.16,weatherlink.com 1.10,2013-02-11 16:34:00,
2013-02-11 11:49:00,39.6,38.0,30.05,SE,141,6.0,17.0,94,0.08,,,0.17,weatherlink.com 1.10,2013-02-11 16:49:00,
2013-02-11 12:04:00,40.1,39.0,30.03,SSW,205,3.0,16.0,94,0.07,,,0.18,weatherlink.com 1.10,2013-02-11 17:04:00,
2013-02-11 12:19:00,40.4,39.0,30.02,SSE,157,7.0,16.0,93,0.06,,,0.19,weatherlink.com 1.10,2013-02-11 17:19:00,
2013-02-11 12:34:00,40.9,39.0,30.00,East,81,5.0,15.0,93,0.04,,,0.20,weatherlink.com 1.10,2013-02-11 17:34:00,
2013-02-11 12:49:00,41.1,39.0,29.99,SW,215,5.0,19.0,92,0.02,,,0.20,weatherlink.com 1.10,2013-02-11 17:49:00,
2013-02-11 13:04:00,40.9,39.0,29.97,SSE,167,10.0,17.0,93,0.02,,,0.20,weatherlink.com 1.10,2013-02-11 18:04:00,
2013-02-11 13:19:00,41.0,39.0,29.95,ESE,117,14.0,14.0,93,0.01,,,0.20,weatherlink.com 1.10,2013-02-11 18:19:00,
2013-02-11 13:34:00,41.0,39.0,29.94,SE,129,4.0,19.0,94,0.00,,,0.20,weatherlink.com 1.10,2013-02-11 18:34:00,
2013-02-11 13:49:00,41.1,40.0,29.92,SSW,212,2.0,16.0,94,0.01,,,0.21,weatherlink.com 1.10,2013-02-11 18:49:00,
2013-02-11 14:04:00,41.0,40.0,29.91,SSW,194,8.0,15.0,95,0.02,,,0.22,weatherlink.com 1.10,2013-02-11 19:04:00,
2013-02-11 14:19:00,41.2,40.0,29.90,SSE,153,3.0,15.0,96,0.04,,,0.24,weatherlink.com 1.10,2013-02-11 19:19:00,
2013-02-11 14:34:00,41.4,40.0,29.89,SE,143,4.0,12.0,96,0.04,,,0.24,weatherlink.com 1.10,2013-02-11 19:34:00,
2013-02-11 14:49:00,41.6,41.0,29.88,SSE,166,0.0,9.0,96,0.04,,,0.25,weatherlink.com 1.10,2013-02-11 19:49:00,
2013-02-11 15:04:00,41.1,40.0,29.87,East,101,0.0,7.0,97,0.04,,,0.26,weatherlink.com 1.10,2013-02-11 20:04:00,
2013-02-11 15:19:00,41.1,40.0,29.86,SSE,149,0.0,6.0,97,0.02,,,0.26,weatherlink.com 1.10,2013-02-11 20:19:00,
2013-02-11 15:34:00,41.5,41.0,29.84,SSE,159,0.0,5.0,98,0.03,,,0.27,weatherlink.com 1.10,2013-02-11 20:34:00,
2013-02-11 15:49:00,41.7,41.0,29.83,WNW,283,1.0,4.0,98,0.03,,,0.28,weatherlink.com 1.10,2013-02-11 20:49:00,
2013-02-11 16:05:00,41.8,41.0,29.81,SSE,152,0.0,4.0,98,0.02,,,0.28,weatherlink.com 1.10,2013-02-11 21:05:00,
2013-02-11 16:20:00,41.7,41.0,29.80,SSW,204,0.0,4.0,98,0.03,,,0.29,weatherlink.com 1.10,2013-02-11 21:20:00,
2013-02-11 16:35:00,42.2,42.0,29.78,SSE,149,0.0,4.0,98,0.03,,,0.30,weatherlink.com 1.10,2013-02-11 21:35:00,
2013-02-11 16:50:00,42.4,42.0,29.77,SW,221,0.0,1.0,98,0.02,,,0.30,weatherlink.com 1.10,2013-02-11 21:50:00,
2013-02-11 17:05:00,42.8,42.0,29.75,SW,235,0.0,1.0,98,0.03,,,0.31,weatherlink.com 1.10,2013-02-11 22:05:00,
2013-02-11 17:20:00,43.2,43.0,29.75,SSW,200,0.0,1.0,99,0.02,,,0.31,weatherlink.com 1.10,2013-02-11 22:20:00,
2013-02-11 17:35:00,42.2,42.0,29.75,SW,214,0.0,1.0,98,0.02,,,0.32,weatherlink.com 1.10,2013-02-11 22:35:00,
2013-02-11 17:50:00,42.8,43.0,29.74,WSW,243,0.0,1.0,99,0.04,,,0.34,weatherlink.com 1.10,2013-02-11 22:50:00,
2013-02-11 18:05:00,41.8,41.0,29.74,West,259,0.0,0.0,98,0.06,,,0.37,weatherlink.com 1.10,2013-02-11 23:05:00,
2013-02-11 18:20:00,41.6,41.0,29.73,SW,236,0.0,1.0,98,0.06,,,0.37,weatherlink.com 1.10,2013-02-11 23:20:00,
2013-02-11 18:35:00,41.3,41.0,29.73,SW,233,0.0,7.0,99,0.05,,,0.37,weatherlink.com 1.10,2013-02-11 23:35:00,
2013-02-11 18:50:00,40.8,41.0,29.74,WSW,245,0.0,13.0,99,0.04,,,0.38,weatherlink.com 1.10,2013-02-11 23:50:00,
2013-02-11 19:05:00,39.8,39.0,29.73,WSW,252,0.0,15.0,98,0.01,,,0.38,weatherlink.com 1.10,2013-02-12 00:05:00,
2013-02-11 19:20:00,38.0,38.0,29.71,WSW,248,0.0,5.0,98,0.02,,,0.39,weatherlink.com 1.10,2013-02-12 00:20:00,
2013-02-11 19:35:00,38.1,38.0,29.70,WSW,248,0.0,5.0,98,0.02,,,0.39,weatherlink.com 1.10,2013-02-12 00:35:00,
2013-02-11 19:50:00,38.4,38.0,29.70,WSW,257,8.0,9.0,99,0.01,,,0.39,weatherlink.com 1.10,2013-02-12 00:50:00,
2013-02-11 20:05:00,38.5,38.0,29.70,WNW,288,7.0,10.0,99,0.01,,,0.39,weatherlink.com 1.10,2013-02-12 01:05:00,
2013-02-11 20:20:00,38.6,38.0,29.70,WSW,241,0.0,10.0,99,0.00,,,0.39,weatherlink.com 1.10,2013-02-12 01:20:00,
2013-02-11 20:35:00,38.3,38.0,29.69,WSW,249,0.0,9.0,99,0.00,,,0.39,weatherlink.com 1.10,2013-02-12 01:35:00,
2013-02-11 20:50:00,38.3,38.0,29.69,WSW,241,0.0,8.0,99,0.00,,,0.39,weatherlink.com 1.10,2013-02-12 01:50:00,
2013-02-11 21:05:00,38.5,38.0,29.68,WSW,239,0.0,6.0,99,0.00,,,0.39,weatherlink.com 1.10,2013-02-12 02:05:00,
2013-02-11 21:20:00,38.6,38.0,29.68,West,262,0.0,0.0,99,0.00,,,0.39,weatherlink.com 1.10,2013-02-12 02:20:00,
2013-02-11 21:35:00,37.2,37.0,29.67,WSW,253,0.0,0.0,99,0.00,,,0.39,weatherlink.com 1.10,2013-02-12 02:35:00,
2013-02-11 21:50:00,36.7,37.0,29.66,WSW,252,0.0,1.0,99,0.00,,,0.39,weatherlink.com 1.10,2013-02-12 02:50:00,
2013-02-11 22:05:00,37.9,38.0,29.65,WSW,258,0.0,3.0,99,0.00,,,0.39,weatherlink.com 1.10,2013-02-12 03:05:00,
2013-02-11 22:20:00,38.0,38.0,29.65,WSW,251,0.0,0.0,99,0.00,,,0.39,weatherlink.com 1.10,2013-02-12 03:20:00,
2013-02-11 22:35:00,37.3,37.0,29.65,WSW,256,0.0,0.0,99,0.00,,,0.39,weatherlink.com 1.10,2013-02-12 03:35:00,
2013-02-11 22:50:00,38.2,38.0,29.64,SW,229,0.0,1.0,99,0.00,,,0.39,weatherlink.com 1.10,2013-02-12 03:50:00,
2013-02-11 23:05:00,36.2,36.0,29.63,WSW,250,0.0,1.0,99,0.00,,,0.39,weatherlink.com 1.10,2013-02-12 04:05:00,
2013-02-11 23:20:00,36.0,36.0,29.62,SW,233,0.0,1.0,99,0.00,,,0.39,weatherlink.com 1.10,2013-02-12 04:20:00,
2013-02-11 23:35:00,36.1,36.0,29.62,WNW,294,0.0,1.0,99,0.00,,,0.39,weatherlink.com 1.10,2013-02-12 04:35:00,
2013-02-11 23:50:00,36.5,36.0,29.63,SW,229,0.0,1.0,99,0.00,,,0.39,weatherlink.com 1.10,2013-02-12 04:50:00,